Quentin, Pennsylvania
Current Conditions -  °F | °C
As of 7:58 PM on Monday 20 Oct 2014 (Local Time) from KMUI Reporting Station
Overcast Overcast  
Wind Chill: 53°   Ceiling: 10000
Heat Index: 53°   Visibility: 10mi
Dew Point: 51°   Wind: 2mph
Humidity: 94%   Direction: 360°N
Pressure: 29.95"   Gusts: NA
Location:  40.28°N, 76.44°W
Report Text: KMUI 202358Z AUTO 36002KT 10SM SCT080 OVC100 12/11 A2995 RMK AO2 DZB2306E2315 SLP148 P0000 60000 T01150105 10165 20112 53002 $
Loading
Personal Weather Stations






























Interactive Weather Map
Tropical Storm Tracking
New forecast layout! Learn more

10-Day Weather Forecast

Advertisements
Track Severe Weather on mobile